sensor_id;sensor_type;location;lat;lon;timestamp;P1;P4;P2;P0;N10;N4;N25;N1;N05;TS
64091;SPS30;50348;51.992;8.380;2023-04-06T00:02:51;9.3;;9.3;9.6;;;;;;
64091;SPS30;50348;51.992;8.380;2023-04-06T00:05:02;9.2;;9.2;8.8;;;;;;
64091;SPS30;50348;51.992;8.380;2023-04-06T00:17:58;9.8;;9.8;9.3;;;;;;
64091;SPS30;50348;51.992;8.380;2023-04-06T00:20:06;10.3;;10.3;9.8;;;;;;
64091;SPS30;50348;51.992;8.380;2023-04-06T00:25:23;9.8;;9.8;9.3;;;;;;
64091;SPS30;50348;51.992;8.380;2023-04-06T00:27:28;10.7;;10.7;10.2;;;;;;
64091;SPS30;50348;51.992;8.380;2023-04-06T00:29:55;10.1;;10.1;9.6;;;;;;
64091;SPS30;50348;51.992;8.380;2023-04-06T00:32:42;10.5;;10.5;10.1;;;;;;
64091;SPS30;50348;51.992;8.380;2023-04-06T00:37:10;10.7;;10.7;10.2;;;;;;
64091;SPS30;50348;51.992;8.380;2023-04-06T00:39:35;10.1;;10.1;9.6;;;;;;
64091;SPS30;50348;51.992;8.380;2023-04-06T00:42:22;10.3;;10.3;9.9;;;;;;
64091;SPS30;50348;51.992;8.380;2023-04-06T00:46:46;10.5;;10.5;10;;;;;;
64091;SPS30;50348;51.992;8.380;2023-04-06T00:49:09;10.6;;10.6;10.1;;;;;;
64091;SPS30;50348;51.992;8.380;2023-04-06T00:51:52;10.9;;10.9;10.4;;;;;;
64091;SPS30;50348;51.992;8.380;2023-04-06T00:54:57;10.8;;10.8;10.3;;;;;;
64091;SPS30;50348;51.992;8.380;2023-04-06T00:59:59;10.6;;10.6;10.1;;;;;;
64091;SPS30;50348;51.992;8.380;2023-04-06T01:03:02;11.1;;11.1;10.6;;;;;;
64091;SPS30;50348;51.992;8.380;2023-04-06T01:08:01;10.9;;10.9;10.4;;;;;;
64091;SPS30;50348;51.992;8.380;2023-04-06T01:10:41;10;;10;9.5;;;;;;
64091;SPS30;50348;51.992;8.380;2023-04-06T01:15:59;11.3;;11.3;10.8;;;;;;
64091;SPS30;50348;51.992;8.380;2023-04-06T01:18:41;11.1;;11.1;10.6;;;;;;
64091;SPS30;50348;51.992;8.380;2023-04-06T01:21:36;10.8;;10.8;10.3;;;;;;
64091;SPS30;50348;51.992;8.380;2023-04-06T01:23:52;11.8;;11.8;11.2;;;;;;
64091;SPS30;50348;51.992;8.380;2023-04-06T01:29:26;11.1;;11.1;10.6;;;;;;
64091;SPS30;50348;51.992;8.380;2023-04-06T01:32:23;11.5;;11.5;10.9;;;;;;
64091;SPS30;50348;51.992;8.380;2023-04-06T01:34:37;11.2;;11.2;10.7;;;;;;
64091;SPS30;50348;51.992;8.380;2023-04-06T01:37:11;10.9;;10.9;10.4;;;;;;
64091;SPS30;50348;51.992;8.380;2023-04-06T01:40:07;11.4;;11.4;10.8;;;;;;
64091;SPS30;50348;51.992;8.380;2023-04-06T01:44:52;12;;12;11.4;;;;;;
64091;SPS30;50348;51.992;8.380;2023-04-06T01:47:45;10;;10;9.5;;;;;;
64091;SPS30;50348;51.992;8.380;2023-04-06T01:49:55;11.9;;11.9;11.3;;;;;;
64091;SPS30;50348;51.992;8.380;2023-04-06T01:52:26;11;;11;10.5;;;;;;
64091;SPS30;50348;51.992;8.380;2023-04-06T01:55:17;11.3;;11.3;10.7;;;;;;
64091;SPS30;50348;51.992;8.380;2023-04-06T01:59:55;11.7;;11.7;11.2;;;;;;
64091;SPS30;50348;51.992;8.380;2023-04-06T02:04:54;11.2;;11.2;10.6;;;;;;
64091;SPS30;50348;51.992;8.380;2023-04-06T02:09:25;12;;12;11.4;;;;;;
64091;SPS30;50348;51.992;8.380;2023-04-06T02:12:13;11.7;;11.7;11.1;;;;;;
64091;SPS30;50348;51.992;8.380;2023-04-06T02:16:43;11.5;;11.5;10.9;;;;;;
64091;SPS30;50348;51.992;8.380;2023-04-06T02:19:08;11.2;;11.2;10.6;;;;;;
64091;SPS30;50348;51.992;8.380;2023-04-06T02:21:54;11.6;;11.6;11.1;;;;;;
64091;SPS30;50348;51.992;8.380;2023-04-06T02:23:57;12.4;;12.4;11.9;;;;;;
64091;SPS30;50348;51.992;8.380;2023-04-06T02:29:09;12.2;;12.2;11.6;;;;;;
64091;SPS30;50348;51.992;8.380;2023-04-06T02:31:51;11.6;;11.6;11;;;;;;
64091;SPS30;50348;51.992;8.380;2023-04-06T02:33:53;11.3;;11.3;10.8;;;;;;
64091;SPS30;50348;51.992;8.380;2023-04-06T02:39:00;11.2;;11.2;10.7;;;;;;
64091;SPS30;50348;51.992;8.380;2023-04-06T02:42:05;12;;12;11.4;;;;;;
64091;SPS30;50348;51.992;8.380;2023-04-06T02:44:26;11.9;;11.9;11.3;;;;;;
64091;SPS30;50348;51.992;8.380;2023-04-06T02:47:08;11;;11;10.5;;;;;;
64091;SPS30;50348;51.992;8.380;2023-04-06T02:50:11;12.5;;12.5;11.9;;;;;;
64091;SPS30;50348;51.992;8.380;2023-04-06T02:52:30;11.7;;11.7;11.2;;;;;;
64091;SPS30;50348;51.992;8.380;2023-04-06T02:58:11;12.1;;12.1;11.5;;;;;;
64091;SPS30;50348;51.992;8.380;2023-04-06T03:00:28;12;;12;11.4;;;;;;
64091;SPS30;50348;51.992;8.380;2023-04-06T03:03:07;11.9;;11.9;11.3;;;;;;
64091;SPS30;50348;51.992;8.380;2023-04-06T03:06:06;12.7;;12.7;12.1;;;;;;
64091;SPS30;50348;51.992;8.380;2023-04-06T03:08:21;11.5;;11.5;10.9;;;;;;
64091;SPS30;50348;51.992;8.380;2023-04-06T03:13:55;12.3;;12.3;11.7;;;;;;
64091;SPS30;50348;51.992;8.380;2023-04-06T03:16:09;11.7;;11.7;11.1;;;;;;
64091;SPS30;50348;51.992;8.380;2023-04-06T03:18:43;11.8;;11.8;11.2;;;;;;
64091;SPS30;50348;51.992;8.380;2023-04-06T03:21:39;12;;12;11.4;;;;;;
64091;SPS30;50348;51.992;8.380;2023-04-06T03:26:24;12.5;;12.5;11.9;;;;;;
64091;SPS30;50348;51.992;8.380;2023-04-06T03:28:57;13.2;;13.2;12.6;;;;;;
64091;SPS30;50348;51.992;8.380;2023-04-06T03:31:50;12.5;;12.5;12;;;;;;
64091;SPS30;50348;51.992;8.380;2023-04-06T03:34:00;12.9;;12.9;12.3;;;;;;
64091;SPS30;50348;51.992;8.380;2023-04-06T03:39:24;13.6;;13.6;12.9;;;;;;
64091;SPS30;50348;51.992;8.380;2023-04-06T03:41:32;12.2;;12.2;11.6;;;;;;
64091;SPS30;50348;51.992;8.380;2023-04-06T03:44:01;11.8;;11.8;11.2;;;;;;
64091;SPS30;50348;51.992;8.380;2023-04-06T03:46:51;12.8;;12.8;12.2;;;;;;
64091;SPS30;50348;51.992;8.380;2023-04-06T03:54:14;12.7;;12.7;12.1;;;;;;
64091;SPS30;50348;51.992;8.380;2023-04-06T03:57:01;12.8;;12.8;12.2;;;;;;
64091;SPS30;50348;51.992;8.380;2023-04-06T04:01:32;12.1;;12.1;11.6;;;;;;
64091;SPS30;50348;51.992;8.380;2023-04-06T04:04:21;12;;12;11.5;;;;;;
64091;SPS30;50348;51.992;8.380;2023-04-06T04:06:21;12.2;;12.2;11.6;;;;;;
64091;SPS30;50348;51.992;8.380;2023-04-06T04:11:29;12.5;;12.5;11.9;;;;;;
64091;SPS30;50348;51.992;8.380;2023-04-06T04:15:52;12.1;;12.1;12;;;;;;
64091;SPS30;50348;51.992;8.380;2023-04-06T04:18:35;12.5;;12.5;11.5;;;;;;
64091;SPS30;50348;51.992;8.380;2023-04-06T04:26:40;12.1;;12.1;11.9;;;;;;
64091;SPS30;50348;51.992;8.380;2023-04-06T04:29:21;12;;12;11.6;;;;;;
64091;SPS30;50348;51.992;8.380;2023-04-06T04:32:23;12.3;;12.3;11.4;;;;;;
64091;SPS30;50348;51.992;8.380;2023-04-06T04:34:41;11.5;;11.5;11.7;;;;;;
64091;SPS30;50348;51.992;8.380;2023-04-06T04:40:20;12.7;;12.7;11;;;;;;
64091;SPS30;50348;51.992;8.380;2023-04-06T04:42:36;12.6;;12.6;12.1;;;;;;
64091;SPS30;50348;51.992;8.380;2023-04-06T04:48:12;11.6;;11.6;12;;;;;;
64091;SPS30;50348;51.992;8.380;2023-04-06T04:50:27;12.4;;12.4;11;;;;;;
64091;SPS30;50348;51.992;8.380;2023-04-06T04:55:59;11.7;;11.7;11.8;;;;;;
64091;SPS30;50348;51.992;8.380;2023-04-06T04:58:11;12.6;;12.6;11.2;;;;;;
64091;SPS30;50348;51.992;8.380;2023-04-06T05:00:45;12.9;;12.9;12.1;;;;;;
64091;SPS30;50348;51.992;8.380;2023-04-06T05:03:40;12.1;;12.1;12.3;;;;;;
64091;SPS30;50348;51.992;8.380;2023-04-06T05:08:23;12.5;;12.5;11.6;;;;;;
64091;SPS30;50348;51.992;8.380;2023-04-06T05:11:16;12.2;;12.2;11.9;;;;;;
64091;SPS30;50348;51.992;8.380;2023-04-06T05:13:25;12.8;;12.8;11.6;;;;;;
64091;SPS30;50348;51.992;8.380;2023-04-06T05:15:55;12.2;;12.2;12.2;;;;;;
64091;SPS30;50348;51.992;8.380;2023-04-06T05:20:54;12.4;;12.4;11.6;;;;;;
64091;SPS30;50348;51.992;8.380;2023-04-06T05:23:04;13.2;;13.2;11.8;;;;;;
64091;SPS30;50348;51.992;8.380;2023-04-06T05:25:29;13;;13;12.6;;;;;;
64091;SPS30;50348;51.992;8.380;2023-04-06T05:30:24;13.1;;13.1;12.4;;;;;;
64091;SPS30;50348;51.992;8.380;2023-04-06T05:32:50;12.3;;12.3;12.5;;;;;;
64091;SPS30;50348;51.992;8.380;2023-04-06T05:35:38;12.6;;12.6;11.7;;;;;;
64091;SPS30;50348;51.992;8.380;2023-04-06T05:40:07;12.5;;12.5;12;;;;;;
64091;SPS30;50348;51.992;8.380;2023-04-06T05:42:52;12.9;;12.9;11.9;;;;;;
64091;SPS30;50348;51.992;8.380;2023-04-06T05:44:55;13;;13;12.3;;;;;;
64091;SPS30;50348;51.992;8.380;2023-04-06T05:50:00;13.8;;13.8;12.4;;;;;;
64091;SPS30;50348;51.992;8.380;2023-04-06T05:53:04;13.1;;13.1;13.2;;;;;;
64091;SPS30;50348;51.992;8.380;2023-04-06T05:55:25;12.7;;12.7;12.5;;;;;;
64091;SPS30;50348;51.992;8.380;2023-04-06T05:58:07;13.1;;13.1;12.1;;;;;;
64091;SPS30;50348;51.992;8.380;2023-04-06T06:01:10;12.2;;12.2;12.5;;;;;;
64091;SPS30;50348;51.992;8.380;2023-04-06T06:03:29;12.4;;12.4;11.7;;;;;;
64091;SPS30;50348;51.992;8.380;2023-04-06T06:09:09;12.8;;12.8;11.8;;;;;;
64091;SPS30;50348;51.992;8.380;2023-04-06T06:11:27;12.3;;12.3;12.2;;;;;;
64091;SPS30;50348;51.992;8.380;2023-04-06T06:14:05;11.7;;11.7;11.7;;;;;;
64091;SPS30;50348;51.992;8.380;2023-04-06T06:17:04;13.3;;13.3;11.2;;;;;;
64091;SPS30;50348;51.992;8.380;2023-04-06T06:20:04;11.2;;11.2;12.7;;;;;;
64091;SPS30;50348;51.992;8.380;2023-04-06T06:24:58;11.9;;11.9;10.6;;;;;;
64091;SPS30;50348;51.992;8.380;2023-04-06T06:27:56;12.2;;12.2;11.3;;;;;;
64091;SPS30;50348;51.992;8.380;2023-04-06T06:30:11;12.5;;12.5;11.6;;;;;;
64091;SPS30;50348;51.992;8.380;2023-04-06T06:32:46;12.9;;12.9;12;;;;;;
64091;SPS30;50348;51.992;8.380;2023-04-06T06:35:43;11.9;;11.9;12.3;;;;;;
64091;SPS30;50348;51.992;8.380;2023-04-06T06:40:30;13.7;;13.7;11.4;;;;;;
64091;SPS30;50348;51.992;8.380;2023-04-06T06:43:24;12.4;;12.4;13.1;;;;;;
64091;SPS30;50348;51.992;8.380;2023-04-06T06:45:35;11.8;;11.8;11.8;;;;;;
64091;SPS30;50348;51.992;8.380;2023-04-06T06:48:07;12.2;;12.2;11.2;;;;;;
64091;SPS30;50348;51.992;8.380;2023-04-06T06:53:09;13.1;;13.1;11.6;;;;;;
64091;SPS30;50348;51.992;8.380;2023-04-06T06:55:39;12.4;;12.4;12.5;;;;;;
64091;SPS30;50348;51.992;8.380;2023-04-06T06:58:30;13;;13;11.9;;;;;;
64091;SPS30;50348;51.992;8.380;2023-04-06T07:03:05;12.8;;12.8;12.4;;;;;;
64091;SPS30;50348;51.992;8.380;2023-04-06T07:05:33;13.2;;13.2;12.2;;;;;;
64091;SPS30;50348;51.992;8.380;2023-04-06T07:08:23;12.9;;12.9;12.6;;;;;;
64091;SPS30;50348;51.992;8.380;2023-04-06T07:10:28;13.7;;13.7;12.3;;;;;;
64091;SPS30;50348;51.992;8.380;2023-04-06T07:15:42;11.8;;11.8;13.1;;;;;;
64091;SPS30;50348;51.992;8.380;2023-04-06T07:18:28;12.6;;12.6;11.3;;;;;;
64091;SPS30;50348;51.992;8.380;2023-04-06T07:20:32;11.8;;11.8;12;;;;;;
64091;SPS30;50348;51.992;8.380;2023-04-06T07:22:57;12.6;;12.6;11.3;;;;;;
64091;SPS30;50348;51.992;8.380;2023-04-06T07:30:07;12.8;;12.8;12.2;;;;;;
64091;SPS30;50348;51.992;8.380;2023-04-06T07:32:30;12.4;;12.4;11.9;;;;;;
64091;SPS30;50348;51.992;8.380;2023-04-06T07:38:17;13.1;;13.1;12.5;;;;;;
64091;SPS30;50348;51.992;8.380;2023-04-06T07:40:38;14;;14;13.4;;;;;;
64091;SPS30;50348;51.992;8.380;2023-04-06T07:43:23;12.7;;12.7;12.1;;;;;;
64091;SPS30;50348;51.992;8.380;2023-04-06T07:46:22;13.2;;13.2;12.6;;;;;;
64091;SPS30;50348;51.992;8.380;2023-04-06T07:48:41;12.5;;12.5;11.9;;;;;;
64091;SPS30;50348;51.992;8.380;2023-04-06T07:54:21;14.2;;14.2;13.6;;;;;;
64091;SPS30;50348;51.992;8.380;2023-04-06T07:56:39;13.1;;13.1;12.4;;;;;;
64091;SPS30;50348;51.992;8.380;2023-04-06T07:59:16;12.5;;12.5;11.9;;;;;;
64091;SPS30;50348;51.992;8.380;2023-04-06T08:02:15;14.4;;14.4;13.7;;;;;;
64091;SPS30;50348;51.992;8.380;2023-04-06T08:07:07;12.9;;12.9;12.3;;;;;;
64091;SPS30;50348;51.992;8.380;2023-04-06T08:09:43;12.8;;12.8;12.2;;;;;;
64091;SPS30;50348;51.992;8.380;2023-04-06T08:12:40;11.6;;11.6;11.1;;;;;;
64091;SPS30;50348;51.992;8.380;2023-04-06T08:14:54;12.3;;12.3;11.7;;;;;;
64091;SPS30;50348;51.992;8.380;2023-04-06T08:17:28;13;;13;12.4;;;;;;
64091;SPS30;50348;51.992;8.380;2023-04-06T08:20:23;14;;14;13.3;;;;;;
64091;SPS30;50348;51.992;8.380;2023-04-06T08:25:08;13.4;;13.4;12.8;;;;;;
64091;SPS30;50348;51.992;8.380;2023-04-06T08:27:40;13.8;;13.8;13.1;;;;;;
64091;SPS30;50348;51.992;8.380;2023-04-06T08:30:33;14;;14.1;13.3;;;;;;
64091;SPS30;50348;51.992;8.380;2023-04-06T08:38:05;13.4;;13.5;13.5;;;;;;
64091;SPS30;50348;51.992;8.380;2023-04-06T08:40:13;13.9;;13.9;12.7;;;;;;
64091;SPS30;50348;51.992;8.380;2023-04-06T08:42:44;13.7;;13.7;13.3;;;;;;
64091;SPS30;50348;51.992;8.380;2023-04-06T08:45:32;13.2;;13.2;13.1;;;;;;
64091;SPS30;50348;51.992;8.380;2023-04-06T08:50:06;13.4;;13.4;12.6;;;;;;
64091;SPS30;50348;51.992;8.380;2023-04-06T08:52:53;13.2;;13.2;12.7;;;;;;
64091;SPS30;50348;51.992;8.380;2023-04-06T08:54:57;14.1;;14.1;12.6;;;;;;
64091;SPS30;50348;51.992;8.380;2023-04-06T09:00:09;12.1;;12.1;13.4;;;;;;
64091;SPS30;50348;51.992;8.380;2023-04-06T09:02:12;13.3;;13.3;11.5;;;;;;
64091;SPS30;50348;51.992;8.380;2023-04-06T09:04:34;15.1;;15.1;12.7;;;;;;
64091;SPS30;50348;51.992;8.380;2023-04-06T09:09:19;13.6;;13.6;14.4;;;;;;
64091;SPS30;50348;51.992;8.380;2023-04-06T09:11:42;12;;12;12.9;;;;;;
64091;SPS30;50348;51.992;8.380;2023-04-06T09:14:33;14.1;;14.1;11.4;;;;;;
64091;SPS30;50348;51.992;8.380;2023-04-06T09:17:27;15.5;;15.5;13.5;;;;;;
64091;SPS30;50348;51.992;8.380;2023-04-06T09:22:36;16;;16;14.8;;;;;;
64091;SPS30;50348;51.992;8.380;2023-04-06T09:25:29;16.3;;16.5;15.3;;;;;;
64091;SPS30;50348;51.992;8.380;2023-04-06T09:27:46;15.5;;15.6;15.4;;;;;;
64091;SPS30;50348;51.992;8.380;2023-04-06T09:30:25;13;;13;14.7;;;;;;
64091;SPS30;50348;51.992;8.380;2023-04-06T09:33:25;14.6;;14.6;12.4;;;;;;
64091;SPS30;50348;51.992;8.380;2023-04-06T09:41:20;14.4;;14.4;13.9;;;;;;
64091;SPS30;50348;51.992;8.380;2023-04-06T09:43:29;14.1;;14.1;13.8;;;;;;
64091;SPS30;50348;51.992;8.380;2023-04-06T09:46:04;13.8;;13.8;13.4;;;;;;
64091;SPS30;50348;51.992;8.380;2023-04-06T09:49:01;13.3;;13.3;13.2;;;;;;
64091;SPS30;50348;51.992;8.380;2023-04-06T09:53:47;14.1;;14.1;12.7;;;;;;
64091;SPS30;50348;51.992;8.380;2023-04-06T09:56:42;13.4;;13.4;13.5;;;;;;
64091;SPS30;50348;51.992;8.380;2023-04-06T09:58:51;14.7;;14.7;12.7;;;;;;
64091;SPS30;50348;51.992;8.380;2023-04-06T10:04:20;12.5;;12.5;14;;;;;;
64091;SPS30;50348;51.992;8.380;2023-04-06T10:06:23;11.4;;11.5;11.9;;;;;;
64091;SPS30;50348;51.992;8.380;2023-04-06T10:08:33;14.9;;14.9;10.9;;;;;;
64091;SPS30;50348;51.992;8.380;2023-04-06T10:13:55;12.8;;12.8;14.2;;;;;;
64091;SPS30;50348;51.992;8.380;2023-04-06T10:16:04;14.5;;14.5;12.2;;;;;;
64091;SPS30;50348;51.992;8.380;2023-04-06T10:18:32;11.8;;11.8;13.9;;;;;;
64091;SPS30;50348;51.992;8.380;2023-04-06T10:21:23;13;;13;11.3;;;;;;
64091;SPS30;50348;51.992;8.380;2023-04-06T10:28:43;12.9;;12.9;12.4;;;;;;
64091;SPS30;50348;51.992;8.380;2023-04-06T10:31:31;16.1;;16.1;12.3;;;;;;
64091;SPS30;50348;51.992;8.380;2023-04-06T10:33:35;14.3;;14.3;15.3;;;;;;
64091;SPS30;50348;51.992;8.380;2023-04-06T10:38:46;12.5;;12.7;13.6;;;;;;
64091;SPS30;50348;51.992;8.380;2023-04-06T10:40:49;13.9;;13.9;11.7;;;;;;
64091;SPS30;50348;51.992;8.380;2023-04-06T10:43:17;15.1;;15.1;13.3;;;;;;
64091;SPS30;50348;51.992;8.380;2023-04-06T10:47:58;15;;15;14.4;;;;;;
64091;SPS30;50348;51.992;8.380;2023-04-06T10:50:20;15.1;;15.1;14.3;;;;;;
64091;SPS30;50348;51.992;8.380;2023-04-06T10:53:02;16.9;;16.9;14.4;;;;;;
64091;SPS30;50348;51.992;8.380;2023-04-06T10:56:05;14;;14.2;16.1;;;;;;
64091;SPS30;50348;51.992;8.380;2023-04-06T11:01:05;14.6;;14.6;13.2;;;;;;
64091;SPS30;50348;51.992;8.380;2023-04-06T11:03:46;16.6;;16.6;13.9;;;;;;
64091;SPS30;50348;51.992;8.380;2023-04-06T11:06:47;15.6;;15.6;15.8;;;;;;
64091;SPS30;50348;51.992;8.380;2023-04-06T11:09:05;16.5;;16.7;14.9;;;;;;
64091;SPS30;50348;51.992;8.380;2023-04-06T11:11:44;17.1;;17.1;15.6;;;;;;
64091;SPS30;50348;51.992;8.380;2023-04-06T11:14:51;15.1;;15.1;16.3;;;;;;
64091;SPS30;50348;51.992;8.380;2023-04-06T11:19:36;14.6;;14.6;14.3;;;;;;
64091;SPS30;50348;51.992;8.380;2023-04-06T11:22:13;15;;15;13.9;;;;;;
64091;SPS30;50348;51.992;8.380;2023-04-06T11:25:11;13.9;;13.9;14.3;;;;;;
64091;SPS30;50348;51.992;8.380;2023-04-06T11:27:25;14.8;;14.8;13.3;;;;;;
64091;SPS30;50348;51.992;8.380;2023-04-06T11:33:00;16.6;;16.6;14.1;;;;;;
64091;SPS30;50348;51.992;8.380;2023-04-06T11:35:10;17.2;;17.2;15.9;;;;;;
64091;SPS30;50348;51.992;8.380;2023-04-06T11:37:42;15;;15;16.4;;;;;;
64091;SPS30;50348;51.992;8.380;2023-04-06T11:40:36;13.4;;13.4;14.3;;;;;;
64091;SPS30;50348;51.992;8.380;2023-04-06T11:45:18;14.8;;14.8;12.8;;;;;;
64091;SPS30;50348;51.992;8.380;2023-04-06T11:50:19;12.3;;14.9;14.1;;;;;;
64091;SPS30;50348;51.992;8.380;2023-04-06T11:52:50;13.8;;12.3;11.7;;;;;;
64091;SPS30;50348;51.992;8.380;2023-04-06T11:57:47;13.2;;13.9;13;;;;;;
64091;SPS30;50348;51.992;8.380;2023-04-06T12:00:13;12.7;;13.2;12.5;;;;;;
64091;SPS30;50348;51.992;8.380;2023-04-06T12:03:02;13.1;;12.7;12.1;;;;;;
64091;SPS30;50348;51.992;8.380;2023-04-06T12:07:33;15.9;;13.1;12.5;;;;;;
64091;SPS30;50348;51.992;8.380;2023-04-06T12:10:19;12.4;;16.1;15.1;;;;;;
64091;SPS30;50348;51.992;8.380;2023-04-06T12:12:26;11.8;;12.5;11.8;;;;;;
64091;SPS30;50348;51.992;8.380;2023-04-06T12:17:32;13.3;;11.9;11.1;;;;;;
64091;SPS30;50348;51.992;8.380;2023-04-06T12:19:33;12.4;;13.3;12.7;;;;;;
64091;SPS30;50348;51.992;8.380;2023-04-06T12:21:58;13.3;;12.4;11.8;;;;;;
64091;SPS30;50348;51.992;8.380;2023-04-06T12:32:47;13.6;;13.3;12.7;;;;;;
64091;SPS30;50348;51.992;8.380;2023-04-06T12:35:45;13;;13.6;12.9;;;;;;
64091;SPS30;50348;51.992;8.380;2023-04-06T12:56:32;13.9;;13.3;12.1;;;;;;
64091;SPS30;50348;51.992;8.380;2023-04-06T13:05:00;10.7;;13.9;13.2;;;;;;
64091;SPS30;50348;51.992;8.380;2023-04-06T13:07:17;12.5;;10.7;10.2;;;;;;
64091;SPS30;50348;51.992;8.380;2023-04-06T13:09:48;12;;12.5;11.9;;;;;;
64091;SPS30;50348;51.992;8.380;2023-04-06T13:12:42;11.9;;12;11.4;;;;;;
64091;SPS30;50348;51.992;8.380;2023-04-06T13:20:20;12.5;;12.5;11.9;;;;;;
64091;SPS30;50348;51.992;8.380;2023-04-06T13:25:06;12;;12;11.3;;;;;;
64091;SPS30;50348;51.992;8.380;2023-04-06T13:27:51;11.2;;11.2;10.6;;;;;;
64091;SPS30;50348;51.992;8.380;2023-04-06T13:32:30;14.7;;14.8;14;;;;;;
64091;SPS30;50348;51.992;8.380;2023-04-06T13:35:16;14.2;;14.4;13.3;;;;;;
64091;SPS30;50348;51.992;8.380;2023-04-06T13:37:22;13;;13;12.3;;;;;;
64091;SPS30;50348;51.992;8.380;2023-04-06T13:42:36;13.3;;13.3;12.7;;;;;;
64091;SPS30;50348;51.992;8.380;2023-04-06T13:44:40;10.9;;10.9;10.4;;;;;;
64091;SPS30;50348;51.992;8.380;2023-04-06T13:47:04;12.2;;12.2;11.6;;;;;;
64091;SPS30;50348;51.992;8.380;2023-04-06T13:51:52;12.9;;13;12.2;;;;;;
64091;SPS30;50348;51.992;8.380;2023-04-06T13:54:19;13.8;;13.9;13;;;;;;
64091;SPS30;50348;51.992;8.380;2023-04-06T13:56:59;15;;15.1;14.3;;;;;;
64091;SPS30;50348;51.992;8.380;2023-04-06T13:59:44;12.6;;12.6;12;;;;;;
64091;SPS30;50348;51.992;8.380;2023-04-06T14:04:08;13.1;;13.2;12.4;;;;;;
64091;SPS30;50348;51.992;8.380;2023-04-06T14:06:30;13.2;;13.4;12.5;;;;;;
64091;SPS30;50348;51.992;8.380;2023-04-06T14:09:14;15.6;;15.7;14.9;;;;;;
64091;SPS30;50348;51.992;8.380;2023-04-06T14:12:16;14.7;;14.8;14;;;;;;
64091;SPS30;50348;51.992;8.380;2023-04-06T14:17:18;14.1;;14.1;13.5;;;;;;
64091;SPS30;50348;51.992;8.380;2023-04-06T14:20:21;13.7;;13.7;13;;;;;;
64091;SPS30;50348;51.992;8.380;2023-04-06T14:22:39;12.5;;12.5;11.9;;;;;;
64091;SPS30;50348;51.992;8.380;2023-04-06T14:25:19;15;;15.1;14.2;;;;;;
64091;SPS30;50348;51.992;8.380;2023-04-06T14:28:20;14.8;;14.9;14;;;;;;
64091;SPS30;50348;51.992;8.380;2023-04-06T14:33:13;13.2;;13.3;12.6;;;;;;
64091;SPS30;50348;51.992;8.380;2023-04-06T14:36:11;15.9;;16;15.1;;;;;;
64091;SPS30;50348;51.992;8.380;2023-04-06T14:38:29;14.8;;14.9;14;;;;;;
64091;SPS30;50348;51.992;8.380;2023-04-06T14:41:02;15.2;;15.4;14.3;;;;;;
64091;SPS30;50348;51.992;8.380;2023-04-06T14:44:00;13.2;;13.2;12.6;;;;;;
64091;SPS30;50348;51.992;8.380;2023-04-06T14:48:46;15.3;;15.5;14.5;;;;;;
64091;SPS30;50348;51.992;8.380;2023-04-06T14:51:40;15.9;;16.1;15;;;;;;
64091;SPS30;50348;51.992;8.380;2023-04-06T14:53:52;16.6;;17;15.6;;;;;;
64091;SPS30;50348;51.992;8.380;2023-04-06T14:59:17;17.4;;17.5;16.5;;;;;;
64091;SPS30;50348;51.992;8.380;2023-04-06T15:01:27;18.2;;18.6;17.1;;;;;;
64091;SPS30;50348;51.992;8.380;2023-04-06T15:03:57;14.8;;14.8;14.1;;;;;;
64091;SPS30;50348;51.992;8.380;2023-04-06T15:06:48;18.6;;18.7;17.7;;;;;;
64091;SPS30;50348;51.992;8.380;2023-04-06T15:11:28;13.9;;14.1;13.1;;;;;;
64091;SPS30;50348;51.992;8.380;2023-04-06T15:14:13;14.2;;14.4;13.5;;;;;;
64091;SPS30;50348;51.992;8.380;2023-04-06T15:16:19;15.4;;15.7;14.5;;;;;;
64091;SPS30;50348;51.992;8.380;2023-04-06T15:18:45;14.1;;14.3;13.2;;;;;;
64091;SPS30;50348;51.992;8.380;2023-04-06T15:23:37;14.9;;14.9;14.1;;;;;;
64091;SPS30;50348;51.992;8.380;2023-04-06T15:26:02;16.6;;16.7;15.8;;;;;;
64091;SPS30;50348;51.992;8.380;2023-04-06T15:33:12;16.8;;16.8;15.7;;;;;;
64091;SPS30;50348;51.992;8.380;2023-04-06T15:35:56;16.3;;17;15.9;;;;;;
64091;SPS30;50348;51.992;8.380;2023-04-06T15:37:56;13.4;;16.6;15.4;;;;;;
64091;SPS30;50348;51.992;8.380;2023-04-06T15:42:59;13.5;;13.6;12.6;;;;;;
64091;SPS30;50348;51.992;8.380;2023-04-06T15:46:02;15.1;;13.5;12.8;;;;;;
64091;SPS30;50348;51.992;8.380;2023-04-06T15:48:21;15.6;;15.3;14.3;;;;;;
64091;SPS30;50348;51.992;8.380;2023-04-06T15:51:02;13.8;;15.8;14.7;;;;;;
64091;SPS30;50348;51.992;8.380;2023-04-06T15:54:03;14.7;;13.8;13.1;;;;;;
64091;SPS30;50348;51.992;8.380;2023-04-06T15:59:00;15.3;;14.7;14;;;;;;
64091;SPS30;50348;51.992;8.380;2023-04-06T16:01:59;14.1;;15.5;14.5;;;;;;
64091;SPS30;50348;51.992;8.380;2023-04-06T16:04:14;14.4;;14.3;13.3;;;;;;
64091;SPS30;50348;51.992;8.380;2023-04-06T16:06:51;12.7;;14.7;13.5;;;;;;
64091;SPS30;50348;51.992;8.380;2023-04-06T16:09:49;12.9;;12.7;12.1;;;;;;
64091;SPS30;50348;51.992;8.380;2023-04-06T16:14:37;14;;13;12.3;;;;;;
64091;SPS30;50348;51.992;8.380;2023-04-06T16:17:32;15.9;;14;13.2;;;;;;
64091;SPS30;50348;51.992;8.380;2023-04-06T16:22:18;12.8;;16;15.1;;;;;;
64091;SPS30;50348;51.992;8.380;2023-04-06T16:27:45;14.1;;12.9;12.2;;;;;;
64091;SPS30;50348;51.992;8.380;2023-04-06T16:29:55;12.1;;14.2;13.4;;;;;;
64091;SPS30;50348;51.992;8.380;2023-04-06T16:32:26;13.1;;12.3;11.5;;;;;;
64091;SPS30;50348;51.992;8.380;2023-04-06T16:35:19;10.6;;13.2;12.4;;;;;;
64091;SPS30;50348;51.992;8.380;2023-04-06T16:39:57;14;;10.6;10.1;;;;;;
64091;SPS30;50348;51.992;8.380;2023-04-06T16:42:29;13.2;;14.1;13.3;;;;;;
64091;SPS30;50348;51.992;8.380;2023-04-06T16:45:16;12.4;;13.2;12.6;;;;;;
64091;SPS30;50348;51.992;8.380;2023-04-06T16:47:23;13.8;;12.4;11.8;;;;;;
64091;SPS30;50348;51.992;8.380;2023-04-06T16:52:42;14.9;;13.9;13.1;;;;;;
64091;SPS30;50348;51.992;8.380;2023-04-06T16:55:27;14.5;;14.9;14.2;;;;;;
64091;SPS30;50348;51.992;8.380;2023-04-06T16:57:32;14.7;;14.5;13.8;;;;;;
64091;SPS30;50348;51.992;8.380;2023-04-06T16:59:59;16.1;;14.8;15.3;;;;;;
64091;SPS30;50348;51.992;8.380;2023-04-06T17:04:52;16.8;;16.8;16;;;;;;
64091;SPS30;50348;51.992;8.380;2023-04-06T17:07:13;16.5;;16.6;15.7;;;;;;
64091;SPS30;50348;51.992;8.380;2023-04-06T17:09:58;15.2;;15.2;14.5;;;;;;
64091;SPS30;50348;51.992;8.380;2023-04-06T17:14:21;17.2;;17.5;16.2;;;;;;
64091;SPS30;50348;51.992;8.380;2023-04-06T17:17:04;17.6;;17.6;16.7;;;;;;
64091;SPS30;50348;51.992;8.380;2023-04-06T17:20:08;15.9;;15.9;15.1;;;;;;
64091;SPS30;50348;51.992;8.380;2023-04-06T17:22:28;16.7;;16.7;15.9;;;;;;
64091;SPS30;50348;51.992;8.380;2023-04-06T17:28:14;17.3;;17.3;16.5;;;;;;
64091;SPS30;50348;51.992;8.380;2023-04-06T17:30:30;15.7;;15.7;15;;;;;;
64091;SPS30;50348;51.992;8.380;2023-04-06T17:33:09;17.2;;17.2;16.4;;;;;;
64091;SPS30;50348;51.992;8.380;2023-04-06T17:36:09;16.4;;16.4;15.6;;;;;;
64091;SPS30;50348;51.992;8.380;2023-04-06T17:38:29;15.7;;15.7;15;;;;;;
64091;SPS30;50348;51.992;8.380;2023-04-06T17:44:02;16.9;;16.9;16.1;;;;;;
64091;SPS30;50348;51.992;8.380;2023-04-06T17:47:00;15.9;;15.9;15.1;;;;;;
64091;SPS30;50348;51.992;8.380;2023-04-06T17:50:00;14.8;;14.8;14.1;;;;;;
64091;SPS30;50348;51.992;8.380;2023-04-06T17:52:16;15.6;;15.6;14.9;;;;;;
64091;SPS30;50348;51.992;8.380;2023-04-06T17:54:53;15.1;;15.1;14.4;;;;;;
64091;SPS30;50348;51.992;8.380;2023-04-06T17:57:51;15.8;;15.8;15.1;;;;;;
64091;SPS30;50348;51.992;8.380;2023-04-06T18:02:40;15;;15;14.3;;;;;;
64091;SPS30;50348;51.992;8.380;2023-04-06T18:05:36;16;;16.1;15.3;;;;;;
64091;SPS30;50348;51.992;8.380;2023-04-06T18:07:48;14.3;;14.3;13.7;;;;;;
64091;SPS30;50348;51.992;8.380;2023-04-06T18:10:21;14.2;;14.2;13.6;;;;;;
64091;SPS30;50348;51.992;8.380;2023-04-06T18:13:15;13.4;;13.7;12.6;;;;;;
64091;SPS30;50348;51.992;8.380;2023-04-06T18:17:57;13.3;;13.3;12.7;;;;;;
64091;SPS30;50348;51.992;8.380;2023-04-06T18:20:49;14.2;;14.2;13.5;;;;;;
64091;SPS30;50348;51.992;8.380;2023-04-06T18:22:58;14;;14;13.4;;;;;;
64091;SPS30;50348;51.992;8.380;2023-04-06T18:28:19;12.9;;13;12.3;;;;;;
64091;SPS30;50348;51.992;8.380;2023-04-06T18:30:26;12.8;;12.8;12.2;;;;;;
64091;SPS30;50348;51.992;8.380;2023-04-06T18:32:54;13.2;;13.2;12.6;;;;;;
64091;SPS30;50348;51.992;8.380;2023-04-06T18:35:42;13;;13;12.4;;;;;;
64091;SPS30;50348;51.992;8.380;2023-04-06T18:40:33;12.8;;12.8;12.2;;;;;;
64091;SPS30;50348;51.992;8.380;2023-04-06T18:42:40;11.9;;11.9;11.4;;;;;;
64091;SPS30;50348;51.992;8.380;2023-04-06T18:45:26;13.3;;13.3;12.7;;;;;;
64091;SPS30;50348;51.992;8.380;2023-04-06T18:49:54;14.1;;14.1;13.4;;;;;;
64091;SPS30;50348;51.992;8.380;2023-04-06T18:52:39;13.4;;13.4;12.7;;;;;;